Time;durP1;ratioP1;P1;durP2;ratioP2;P2;SDS_P1;SDS_P2;PMS_P1;PMS_P2;Temp;Humidity;BMP_temperature;BMP_pressure;BME280_temperature;BME280_humidity;BME280_pressure;Samples;Min_cycle;Max_cycle;Signal;HPM_P1;HPM_P2
2022/09/12 00:01:15;;;;;;;20.73;15.18;;;;;;;12.96;86.53;101669.28;4952445;28;20043;-74
2022/09/12 00:03:43;;;;;;;17.15;13.63;;;;;;;12.94;86.53;101667.56;4951447;28;20052;-74
2022/09/12 00:06:22;;;;;;;17.83;14.35;;;;;;;12.93;86.58;101655.22;4953301;28;20044;-74
2022/09/12 00:08:53;;;;;;;19.65;13.48;;;;;;;12.87;86.78;101657.13;4951696;28;20048;-74
2022/09/12 00:11:21;;;;;;;16.52;13.73;;;;;;;12.83;86.61;101651.97;4952337;28;20111;-74
2022/09/12 00:13:49;;;;;;;18.95;14.38;;;;;;;12.77;86.73;101650.38;4951218;28;20052;-74
2022/09/12 00:16:21;;;;;;;17.75;14.23;;;;;;;12.75;86.82;101660.09;4951190;28;20040;-74
2022/09/12 00:18:50;;;;;;;17.75;14.73;;;;;;;12.71;87.01;101646.09;4951458;28;20511;-74
2022/09/12 00:21:18;;;;;;;17.38;12.85;;;;;;;12.68;86.97;101650.59;4950838;28;20039;-74
2022/09/12 00:23:46;;;;;;;21.00;14.25;;;;;;;12.65;87.08;101648.91;4952482;28;20035;-73
2022/09/12 00:26:17;;;;;;;18.30;15.38;;;;;;;12.64;87.22;101648.94;4952836;28;20047;-73
2022/09/12 00:28:45;;;;;;;18.13;13.95;;;;;;;12.60;87.34;101645.50;4952569;28;20154;-73
2022/09/12 00:31:22;;;;;;;18.35;14.15;;;;;;;12.56;87.41;101647.38;4948934;28;20115;-73
2022/09/12 00:33:51;;;;;;;19.40;13.73;;;;;;;12.49;87.17;101642.25;4944888;28;20113;-72
2022/09/12 00:36:23;;;;;;;16.73;12.38;;;;;;;12.42;87.37;101633.63;4951798;28;20076;-72
2022/09/12 00:38:51;;;;;;;18.42;13.10;;;;;;;12.39;87.76;101639.00;4951310;28;20039;-71
2022/09/12 00:41:30;;;;;;;18.92;13.00;;;;;;;12.38;88.14;101632.84;4952032;28;20107;-71
2022/09/12 00:44:20;;;;;;;20.52;14.68;;;;;;;12.36;88.04;101642.56;4952596;28;20953;-72
2022/09/12 00:46:55;;;;;;;20.52;12.85;;;;;;;12.32;87.98;101630.34;4949231;28;20484;-72
2022/09/12 00:49:39;;;;;;;17.92;12.75;;;;;;;12.30;88.18;101632.16;4950119;28;20063;-72
2022/09/12 00:52:33;;;;;;;18.63;13.50;;;;;;;12.30;88.39;101636.59;4952053;28;20119;-72
2022/09/12 00:55:11;;;;;;;16.73;13.53;;;;;;;12.29;88.14;101630.41;4948832;28;20575;-72
2022/09/12 00:57:48;;;;;;;18.27;13.25;;;;;;;12.29;88.27;101626.91;4951825;28;20075;-73
2022/09/12 01:00:23;;;;;;;22.02;14.80;;;;;;;12.25;88.09;101627.00;4946443;28;20516;-73
2022/09/12 01:03:06;;;;;;;20.10;14.55;;;;;;;12.25;88.38;101620.84;4947966;28;20512;-73
2022/09/12 01:05:39;;;;;;;20.20;15.23;;;;;;;12.24;88.37;101624.41;4948680;28;20503;-73
2022/09/12 01:08:06;;;;;;;17.77;14.88;;;;;;;12.21;88.26;101624.47;4950305;28;20419;-73
2022/09/12 01:10:37;;;;;;;21.35;14.63;;;;;;;12.21;88.74;101613.88;4950176;28;20099;-73
2022/09/12 01:13:08;;;;;;;20.90;14.43;;;;;;;12.17;88.45;101613.09;4950847;28;20127;-73
2022/09/12 01:15:39;;;;;;;16.83;13.27;;;;;;;12.16;88.33;101607.84;4936384;28;20043;-72
2022/09/12 01:18:26;;;;;;;19.83;13.75;;;;;;;12.16;88.54;101606.06;4950924;28;20051;-73
2022/09/12 01:21:20;;;;;;;19.35;12.93;;;;;;;12.09;88.39;101600.06;4949694;28;20091;-73
2022/09/12 01:24:45;;;;;;;18.30;13.45;;;;;;;11.99;88.64;101603.84;4951328;28;20920;-73
2022/09/12 01:27:28;;;;;;;18.88;13.98;;;;;;;11.90;89.01;101591.69;4949965;28;20039;-73
2022/09/12 01:30:04;;;;;;;23.63;15.55;;;;;;;11.86;89.22;101594.41;4948963;28;20053;-73
2022/09/12 01:33:06;;;;;;;22.42;16.13;;;;;;;11.86;89.43;101584.75;4951520;28;20674;-73
2022/09/12 01:36:02;;;;;;;19.42;15.30;;;;;;;11.91;89.52;101584.63;4948250;28;20046;-73
2022/09/12 01:38:42;;;;;;;21.98;15.35;;;;;;;11.96;90.02;101585.38;4947341;28;20838;-73
2022/09/12 01:41:52;;;;;;;27.67;16.23;;;;;;;11.98;90.18;101588.03;4950605;28;20043;-73
2022/09/12 01:44:59;;;;;;;19.70;15.55;;;;;;;11.96;89.78;101586.25;4950821;28;20044;-74
2022/09/12 01:48:19;;;;;;;21.50;15.57;;;;;;;11.96;89.96;101580.09;4948157;28;20082;-73
2022/09/12 01:51:06;;;;;;;19.15;14.23;;;;;;;11.93;89.74;101582.81;4921467;28;20055;-73
2022/09/12 01:53:45;;;;;;;18.58;14.45;;;;;;;11.90;89.63;101583.78;4951267;28;20055;-73
2022/09/12 01:56:24;;;;;;;22.27;15.85;;;;;;;11.89;89.33;101582.03;4949545;28;20474;-72
2022/09/12 01:59:10;;;;;;;21.63;15.32;;;;;;;11.86;89.46;101573.28;4949961;28;20074;-72
2022/09/12 02:01:54;;;;;;;24.90;17.42;;;;;;;11.88;89.50;101574.13;4950789;28;20421;-73
2022/09/12 02:04:30;;;;;;;23.95;17.65;;;;;;;11.90;89.46;101585.53;4950847;28;20050;-73
2022/09/12 02:07:21;;;;;;;26.52;18.92;;;;;;;11.93;89.49;101572.25;4952120;28;20586;-75
2022/09/12 02:10:08;;;;;;;25.15;17.83;;;;;;;11.95;89.41;101581.03;4947384;28;20825;-76
2022/09/12 02:12:46;;;;;;;25.05;17.90;;;;;;;11.96;89.39;101573.03;4948911;28;20099;-75
2022/09/12 02:15:19;;;;;;;27.42;18.17;;;;;;;11.96;89.45;101565.13;4951240;28;20638;-75
2022/09/12 02:17:53;;;;;;;25.13;18.30;;;;;;;11.96;89.24;101565.13;4954897;28;20044;-76
2022/09/12 02:20:27;;;;;;;20.50;15.47;;;;;;;11.97;89.67;101563.31;4950369;28;20132;-75
2022/09/12 02:23:27;;;;;;;21.05;15.05;;;;;;;11.97;89.57;101560.69;4944715;28;20497;-74
2022/09/12 02:26:07;;;;;;;18.88;14.77;;;;;;;11.93;89.55;101562.53;4950719;28;20072;-74
2022/09/12 02:28:40;;;;;;;27.20;15.15;;;;;;;11.92;89.68;101554.66;4954207;28;20052;-74
2022/09/12 02:31:32;;;;;;;27.37;18.63;;;;;;;11.90;89.84;101546.78;4954988;28;20169;-74
2022/09/12 02:34:26;;;;;;;28.92;18.85;;;;;;;11.90;90.11;101545.91;4953975;28;20800;-74
2022/09/12 02:37:04;;;;;;;31.67;20.83;;;;;;;11.96;90.41;101541.34;4952741;28;20068;-74
2022/09/12 02:39:32;;;;;;;36.80;21.55;;;;;;;12.00;90.49;101538.66;4954287;28;20048;-74
2022/09/12 02:42:02;;;;;;;36.80;23.00;;;;;;;12.02;90.16;101543.00;4952721;28;20127;-74
2022/09/12 02:44:31;;;;;;;39.67;24.67;;;;;;;12.04;90.62;101559.69;4954894;28;20063;-74
2022/09/12 02:47:59;;;;;;;43.22;25.90;;;;;;;12.06;90.72;101538.50;4953286;28;20043;-73
2022/09/12 02:50:26;;;;;;;45.70;25.10;;;;;;;12.11;90.81;101544.50;4915101;28;20753;-73
2022/09/12 02:52:58;;;;;;;44.33;26.38;;;;;;;12.16;90.85;101541.78;4951623;28;20083;-73
2022/09/12 02:55:29;;;;;;;37.00;22.35;;;;;;;12.20;91.16;101540.78;4953923;28;20044;-74
2022/09/12 02:57:56;;;;;;;36.83;21.63;;;;;;;12.19;90.97;101539.91;4946293;28;20397;-73
2022/09/12 03:00:25;;;;;;;44.50;26.13;;;;;;;12.20;90.91;101548.72;4953408;28;20170;-73
2022/09/12 03:03:20;;;;;;;40.35;24.58;;;;;;;12.20;91.09;101554.88;4953724;28;20044;-75
2022/09/12 03:05:59;;;;;;;45.75;25.92;;;;;;;12.21;90.90;101548.66;4953420;28;20047;-75
2022/09/12 03:09:12;;;;;;;43.22;25.02;;;;;;;12.21;91.08;101546.00;4951274;28;20059;-73
2022/09/12 03:11:46;;;;;;;37.95;23.83;;;;;;;12.20;90.92;101543.41;4950910;28;20645;-73
2022/09/12 03:14:47;;;;;;;41.28;24.20;;;;;;;12.20;90.83;101535.50;4952636;28;20040;-74
2022/09/12 03:17:44;;;;;;;39.90;25.10;;;;;;;12.20;90.93;101540.78;4951710;28;20152;-73
2022/09/12 03:20:49;;;;;;;40.55;25.25;;;;;;;12.19;90.85;101539.03;4945245;28;20046;-73
2022/09/12 03:23:28;;;;;;;38.53;23.85;;;;;;;12.17;91.09;101527.63;4939816;28;20051;-76
2022/09/12 03:26:09;;;;;;;37.55;24.30;;;;;;;12.17;90.86;101533.81;4953386;28;20587;-76
2022/09/12 03:28:40;;;;;;;37.92;23.27;;;;;;;12.15;90.85;101535.59;4953606;28;20035;-76
2022/09/12 03:31:15;;;;;;;36.88;23.48;;;;;;;12.15;90.68;101529.47;4952680;28;20070;-76
2022/09/12 03:33:44;;;;;;;37.53;23.83;;;;;;;12.11;90.78;101526.91;4941762;28;20048;-73
2022/09/12 03:36:27;;;;;;;36.97;22.73;;;;;;;12.12;90.83;101525.09;4947219;28;20051;-72
2022/09/12 03:38:54;;;;;;;41.03;23.92;;;;;;;12.09;90.81;101522.56;4953930;28;20527;-72
2022/09/12 03:41:21;;;;;;;40.13;23.48;;;;;;;12.10;90.86;101521.66;4953034;28;20127;-71
2022/09/12 03:43:48;;;;;;;48.38;23.30;;;;;;;12.09;90.81;101522.56;4953883;28;20123;-71
2022/09/12 03:46:15;;;;;;;45.30;25.58;;;;;;;12.09;90.96;101519.91;4954359;28;20106;-72
2022/09/12 03:48:43;;;;;;;45.13;24.15;;;;;;;12.09;91.03;101512.84;4953319;28;20147;-73
2022/09/12 03:51:10;;;;;;;48.30;25.88;;;;;;;12.12;91.16;101514.53;4952174;28;20554;-72
2022/09/12 03:53:38;;;;;;;61.97;28.80;;;;;;;12.14;91.22;101514.50;4951695;28;20139;-73
2022/09/12 03:56:08;;;;;;;55.38;27.88;;;;;;;12.15;91.21;101509.19;4951478;28;20099;-73
2022/09/12 03:58:37;;;;;;;54.78;29.50;;;;;;;12.15;91.33;101505.69;4952138;28;20143;-73
2022/09/12 04:01:14;;;;;;;54.58;28.25;;;;;;;12.16;91.34;101510.91;4953396;28;20040;-73
2022/09/12 04:03:45;;;;;;;56.08;28.85;;;;;;;12.19;91.68;101509.97;4952737;28;20044;-73
2022/09/12 04:06:15;;;;;;;58.13;28.80;;;;;;;12.21;91.46;101505.50;4952932;28;20586;-72
2022/09/12 04:08:49;;;;;;;60.25;30.17;;;;;;;12.23;91.74;101495.78;4952224;28;20570;-72
2022/09/12 04:11:19;;;;;;;62.38;30.90;;;;;;;12.24;91.72;101497.50;4953519;28;20075;-77
2022/09/12 04:13:47;;;;;;;62.05;31.13;;;;;;;12.25;91.75;101502.75;4953554;28;20048;-77
2022/09/12 04:16:16;;;;;;;55.70;28.90;;;;;;;12.28;91.66;101504.44;4940364;28;20111;-77
2022/09/12 04:18:44;;;;;;;50.28;26.25;;;;;;;12.30;91.63;101504.41;4959709;28;20043;-75
2022/09/12 04:21:17;;;;;;;55.75;28.23;;;;;;;12.30;91.78;101502.63;4953817;28;20047;-77
2022/09/12 04:23:44;;;;;;;53.80;29.13;;;;;;;12.27;91.58;101503.56;4951909;28;20044;-77
2022/09/12 04:26:14;;;;;;;56.67;28.90;;;;;;;12.27;91.65;101493.00;4952202;28;20507;-76
2022/09/12 04:28:41;;;;;;;51.47;28.23;;;;;;;12.31;91.70;101498.22;4949733;28;20118;-76
2022/09/12 04:31:16;;;;;;;49.97;27.65;;;;;;;12.30;91.76;101483.25;4954345;28;20056;-78
2022/09/12 04:33:44;;;;;;;54.20;28.10;;;;;;;12.32;91.84;101487.59;4952518;28;20441;-78
2022/09/12 04:36:16;;;;;;;52.95;28.02;;;;;;;12.31;91.77;101492.94;4963929;28;20050;-78
2022/09/12 04:38:45;;;;;;;52.58;27.42;;;;;;;12.32;91.93;101484.06;4958074;28;20091;-78
2022/09/12 04:41:22;;;;;;;55.58;28.02;;;;;;;12.32;91.87;101484.06;4961442;28;20429;-78
2022/09/12 04:44:02;;;;;;;58.92;29.35;;;;;;;12.32;91.89;101487.59;4955378;28;20123;-77
2022/09/12 04:46:33;;;;;;;53.85;28.75;;;;;;;12.34;92.02;101491.06;4958867;28;20064;-72
2022/09/12 04:49:04;;;;;;;54.45;27.27;;;;;;;12.36;91.92;101491.84;4953608;28;20043;-72
2022/09/12 04:51:35;;;;;;;58.05;28.60;;;;;;;12.36;91.93;101483.06;4950067;28;20513;-72
2022/09/12 04:54:14;;;;;;;56.30;27.60;;;;;;;12.40;91.76;101480.31;4950943;28;20464;-72
2022/09/12 04:56:45;;;;;;;56.33;27.55;;;;;;;12.42;91.68;101486.44;4952459;28;20047;-72
2022/09/12 04:59:16;;;;;;;55.60;29.38;;;;;;;12.45;91.55;101480.19;4949473;28;20107;-72
2022/09/12 05:04:41;;;;;;;61.30;29.42;;;;;;;12.49;91.68;101484.47;4947550;28;20036;-72
2022/09/12 05:07:08;;;;;;;62.72;28.75;;;;;;;12.56;91.69;101487.81;4948441;28;20047;-71
2022/09/12 05:09:35;;;;;;;60.83;29.25;;;;;;;12.58;91.67;101480.69;4956930;28;20107;-71
2022/09/12 05:12:03;;;;;;;63.70;30.35;;;;;;;12.60;91.68;101480.66;4957890;28;20150;-71
2022/09/12 05:14:33;;;;;;;56.53;29.30;;;;;;;12.62;91.76;101485.00;4949527;28;20131;-71
2022/09/12 05:17:01;;;;;;;61.17;31.08;;;;;;;12.66;91.75;101485.75;4952649;28;20070;-71
2022/09/12 05:19:30;;;;;;;60.00;30.45;;;;;;;12.69;91.70;101490.97;4952115;28;20047;-71
2022/09/12 05:21:59;;;;;;;70.25;31.20;;;;;;;12.72;91.73;101494.41;4952119;28;20075;-71
2022/09/12 05:24:29;;;;;;;50.80;27.23;;;;;;;12.77;91.82;101491.63;4952640;28;20044;-71
2022/09/12 05:26:58;;;;;;;55.75;29.67;;;;;;;12.81;91.86;101487.09;4951713;28;20712;-71
2022/09/12 05:29:25;;;;;;;59.50;29.95;;;;;;;12.85;92.00;101489.59;4950486;28;20040;-71
2022/09/12 05:31:53;;;;;;;56.72;28.73;;;;;;;12.89;91.96;101493.03;4952333;28;20126;-71
2022/09/12 05:34:21;;;;;;;63.80;31.15;;;;;;;12.96;91.90;101497.25;4950422;28;20644;-70
2022/09/12 05:36:48;;;;;;;59.63;29.65;;;;;;;13.03;91.82;101490.84;4951106;28;20044;-71
2022/09/12 05:39:15;;;;;;;60.38;30.08;;;;;;;13.07;91.93;101488.97;4951065;28;20563;-71
2022/09/12 05:41:43;;;;;;;60.15;28.55;;;;;;;13.11;92.04;101484.44;4950894;28;20039;-71
2022/09/12 05:44:12;;;;;;;64.68;29.95;;;;;;;13.14;91.98;101487.00;4954635;28;20051;-71
2022/09/12 05:46:43;;;;;;;65.47;30.67;;;;;;;13.19;92.02;101496.53;4969215;28;20047;-71
2022/09/12 05:49:13;;;;;;;61.65;29.20;;;;;;;13.22;91.97;101498.22;4951896;28;20075;-71
2022/09/12 05:51:44;;;;;;;63.85;31.15;;;;;;;13.25;91.83;101490.19;4939138;28;20062;-71
2022/09/12 05:54:18;;;;;;;60.00;30.20;;;;;;;13.29;91.73;101491.81;4952230;28;20123;-71
2022/09/12 05:56:46;;;;;;;68.65;30.65;;;;;;;13.30;91.94;101493.53;4956042;28;20040;-71
2022/09/12 05:59:20;;;;;;;59.40;29.35;;;;;;;13.32;91.59;101496.16;4955603;28;20171;-71
2022/09/12 06:01:47;;;;;;;60.63;30.60;;;;;;;13.34;91.54;101495.19;4955682;28;20043;-71
2022/09/12 06:04:16;;;;;;;62.00;29.50;;;;;;;13.39;91.46;101499.47;4955123;28;20075;-70
2022/09/12 06:06:45;;;;;;;66.55;30.55;;;;;;;13.42;91.30;101510.88;4954559;28;20078;-71
2022/09/12 06:09:15;;;;;;;59.80;29.58;;;;;;;13.44;91.48;101506.38;4954727;28;20072;-71
2022/09/12 06:11:44;;;;;;;60.58;28.77;;;;;;;13.50;91.34;101505.31;4941548;28;20060;-71
2022/09/12 06:14:15;;;;;;;60.13;29.35;;;;;;;13.53;91.26;101502.59;4949477;28;20048;-72
2022/09/12 06:16:42;;;;;;;61.03;29.98;;;;;;;13.57;91.31;101506.00;4954724;28;20130;-71
2022/09/12 06:19:19;;;;;;;54.83;29.95;;;;;;;13.63;91.39;101501.38;4954462;28;20123;-71
2022/09/12 06:21:48;;;;;;;61.00;29.85;;;;;;;13.68;91.27;101503.00;4954903;28;20567;-72
2022/09/12 06:24:17;;;;;;;60.33;28.92;;;;;;;13.73;91.35;101496.66;4955289;28;20039;-72
2022/09/12 06:26:46;;;;;;;59.80;29.33;;;;;;;13.76;91.24;101501.81;4954453;28;20047;-71
2022/09/12 06:29:14;;;;;;;60.65;30.13;;;;;;;13.79;91.35;101499.09;4949254;28;20047;-72
2022/09/12 06:31:42;;;;;;;62.05;29.70;;;;;;;13.80;91.33;101503.47;4954642;28;20115;-73
2022/09/12 06:34:12;;;;;;;60.55;29.40;;;;;;;13.86;91.21;101496.22;4954904;28;20048;-72
2022/09/12 06:36:44;;;;;;;62.30;30.85;;;;;;;13.90;91.34;101504.00;4954627;28;20056;-71
2022/09/12 06:39:18;;;;;;;58.45;31.83;;;;;;;13.96;91.04;101502.94;4960537;28;20047;-72
2022/09/12 06:41:47;;;;;;;57.47;30.37;;;;;;;13.96;91.01;101501.16;4974952;28;20047;-71
2022/09/12 06:44:18;;;;;;;57.38;31.40;;;;;;;14.01;91.04;101502.78;4973724;28;20733;-72
2022/09/12 06:46:46;;;;;;;56.80;29.00;;;;;;;14.01;90.86;101498.38;4951415;28;20044;-72
2022/09/12 06:49:13;;;;;;;53.00;28.77;;;;;;;14.04;91.02;101503.53;4953166;28;20047;-72
2022/09/12 06:51:42;;;;;;;55.42;29.25;;;;;;;14.05;90.97;101497.31;4953716;28;20064;-72
2022/09/12 06:54:14;;;;;;;57.15;29.98;;;;;;;14.06;90.76;101501.69;4952994;28;20080;-72
2022/09/12 06:56:41;;;;;;;50.28;28.65;;;;;;;14.09;90.96;101490.16;4953677;28;20067;-73
2022/09/12 06:59:09;;;;;;;53.22;27.75;;;;;;;14.10;90.83;101491.84;4953334;28;20067;-73
2022/09/12 07:01:37;;;;;;;56.33;28.88;;;;;;;14.07;90.77;101484.88;4953799;28;20051;-73
2022/09/12 07:04:04;;;;;;;62.30;30.20;;;;;;;14.04;90.66;101492.94;4953593;28;20040;-73
2022/09/12 07:06:41;;;;;;;53.03;28.05;;;;;;;14.02;90.59;101488.59;4952057;28;20046;-73
2022/09/12 07:09:15;;;;;;;63.08;30.42;;;;;;;13.97;90.53;101491.41;4953593;28;20091;-73
2022/09/12 07:11:44;;;;;;;55.22;29.70;;;;;;;13.93;90.58;101484.50;4954675;28;20127;-73
2022/09/12 07:14:14;;;;;;;56.00;28.85;;;;;;;13.90;90.66;101488.09;4954739;28;20055;-73
2022/09/12 07:16:41;;;;;;;61.17;30.88;;;;;;;13.89;90.84;101493.47;4954489;28;20094;-73
2022/09/12 07:19:10;;;;;;;55.05;29.00;;;;;;;13.90;90.76;101495.19;4954543;28;20044;-73
2022/09/12 07:21:38;;;;;;;53.45;30.10;;;;;;;13.99;90.75;101494.88;4949181;28;20055;-73
2022/09/12 07:24:09;;;;;;;61.53;30.15;;;;;;;14.16;90.52;101491.66;4945456;28;20048;-74
2022/09/12 07:26:39;;;;;;;61.67;31.58;;;;;;;14.36;90.61;101498.03;4953526;28;20044;-73
2022/09/12 07:29:11;;;;;;;63.47;31.75;;;;;;;14.57;90.52;101496.38;4954869;28;20585;-74
2022/09/12 07:32:00;;;;;;;51.95;27.45;;;;;;;14.83;89.77;101491.94;4954370;28;20464;-74
2022/09/12 07:34:27;;;;;;;54.08;31.00;;;;;;;15.03;90.06;101489.41;4954587;28;20123;-74
2022/09/12 07:36:55;;;;;;;54.33;29.98;;;;;;;15.21;89.61;101495.75;4953604;28;20048;-74
2022/09/12 07:39:22;;;;;;;53.17;29.10;;;;;;;15.40;89.16;101491.50;4954485;28;20797;-73
2022/09/12 07:41:50;;;;;;;53.38;29.80;;;;;;;15.51;89.06;101483.97;4954274;28;20099;-73
2022/09/12 07:44:17;;;;;;;45.72;27.35;;;;;;;15.61;88.59;101481.81;4954164;28;20039;-73
2022/09/12 07:46:44;;;;;;;46.20;26.75;;;;;;;15.78;88.13;101492.59;4954552;28;20096;-73
2022/09/12 07:49:11;;;;;;;41.10;24.40;;;;;;;15.94;87.61;101484.88;4954344;28;20455;-73
2022/09/12 07:51:40;;;;;;;46.63;27.95;;;;;;;16.08;87.35;101483.41;4952898;28;20047;-73
2022/09/12 07:54:08;;;;;;;49.58;28.58;;;;;;;16.29;87.22;101474.47;4953372;28;20052;-73
2022/09/12 07:56:35;;;;;;;41.95;25.95;;;;;;;16.46;86.52;101472.88;4953875;28;20044;-73
2022/09/12 07:59:07;;;;;;;42.00;25.38;;;;;;;16.62;85.83;101481.03;4954171;28;20107;-73
2022/09/12 08:01:34;;;;;;;44.42;23.38;;;;;;;16.74;85.26;101482.25;4954698;28;20051;-73
2022/09/12 08:04:03;;;;;;;38.40;21.77;;;;;;;16.83;84.66;101473.84;4953735;28;20036;-73
2022/09/12 08:06:34;;;;;;;35.72;23.25;;;;;;;16.98;84.27;101480.28;4953163;28;20048;-75
2022/09/12 08:09:04;;;;;;;49.50;25.02;;;;;;;17.12;83.51;101479.63;4953277;28;20048;-76
2022/09/12 08:11:31;;;;;;;35.22;22.20;;;;;;;17.28;82.92;101485.06;4954028;28;20487;-76
2022/09/12 08:14:00;;;;;;;42.20;22.98;;;;;;;17.41;82.57;101487.16;4953526;28;20137;-75
2022/09/12 08:16:30;;;;;;;41.33;22.85;;;;;;;17.53;82.34;101497.22;4953941;28;20103;-75
2022/09/12 08:19:00;;;;;;;37.20;23.55;;;;;;;17.65;81.15;101493.06;4953655;28;20047;-76
2022/09/12 08:21:31;;;;;;;36.13;21.60;;;;;;;17.74;80.91;101489.94;4945513;28;20079;-74
2022/09/12 08:24:05;;;;;;;33.25;20.98;;;;;;;17.88;80.83;101491.91;4950766;28;20051;-75
2022/09/12 08:26:33;;;;;;;34.03;20.17;;;;;;;18.03;79.67;101481.44;4953725;28;20040;-75
2022/09/12 08:29:01;;;;;;;35.97;21.00;;;;;;;18.18;80.07;101487.78;4953200;28;20043;-75
2022/09/12 08:31:35;;;;;;;34.42;21.10;;;;;;;18.32;79.65;101485.22;4952046;28;20130;-76
2022/09/12 08:34:05;;;;;;;33.03;21.08;;;;;;;18.50;79.59;101498.56;4951646;28;20126;-75
2022/09/12 08:36:34;;;;;;;29.77;19.52;;;;;;;18.63;77.82;101502.28;4953702;28;20086;-75
2022/09/12 08:39:05;;;;;;;32.95;21.95;;;;;;;18.73;77.06;101492.84;4949384;28;20064;-75
2022/09/12 08:42:01;;;;;;;29.83;18.92;;;;;;;18.80;76.82;101495.19;4940791;28;20043;-75
2022/09/12 08:45:14;;;;;;;36.22;22.55;;;;;;;18.90;77.04;101497.25;4952806;28;20044;-75
2022/09/12 08:47:45;;;;;;;35.85;22.40;;;;;;;18.98;77.16;101496.88;4942876;28;20043;-75
2022/09/12 08:50:21;;;;;;;33.75;20.88;;;;;;;19.02;76.55;101490.41;4950719;28;20121;-75
2022/09/12 08:53:15;;;;;;;35.33;19.95;;;;;;;19.08;75.71;101497.19;4952360;28;20055;-76
2022/09/12 08:55:52;;;;;;;28.05;20.35;;;;;;;19.11;75.63;101493.53;4952614;28;20043;-75
2022/09/12 08:58:26;;;;;;;29.17;20.90;;;;;;;19.14;75.20;101494.22;4952839;28;20036;-75
2022/09/12 09:01:08;;;;;;;32.85;19.90;;;;;;;19.25;75.56;101493.59;4953327;28;20520;-74
2022/09/12 09:04:08;;;;;;;34.25;20.27;;;;;;;19.41;75.49;101482.88;4954320;28;20498;-75
2022/09/12 09:07:05;;;;;;;32.10;20.02;;;;;;;19.51;74.00;101489.41;4946036;28;20040;-75
2022/09/12 09:09:59;;;;;;;29.85;19.30;;;;;;;19.57;73.86;101487.34;4951787;28;20044;-75
2022/09/12 09:12:50;;;;;;;28.88;18.88;;;;;;;19.66;73.49;101479.66;4952387;28;20054;-75
2022/09/12 09:15:32;;;;;;;25.17;18.45;;;;;;;19.77;73.88;101481.69;4952987;28;20047;-75
2022/09/12 09:18:27;;;;;;;25.52;18.83;;;;;;;19.96;73.33;101478.81;4929175;29;20051;-75
2022/09/12 09:21:29;;;;;;;24.88;17.75;;;;;;;20.11;73.05;101474.34;4950110;28;20071;-75
2022/09/12 09:24:09;;;;;;;23.52;17.10;;;;;;;20.23;71.29;101482.59;4941054;28;20051;-76
2022/09/12 09:26:57;;;;;;;28.67;18.33;;;;;;;20.34;71.78;101485.47;4950768;28;20040;-75
2022/09/12 09:29:43;;;;;;;27.23;18.33;;;;;;;20.46;71.82;101476.69;4952290;28;20051;-75
2022/09/12 09:32:37;;;;;;;29.60;18.15;;;;;;;20.60;70.82;101478.50;4952651;28;20043;-75
2022/09/12 09:35:33;;;;;;;21.10;14.82;;;;;;;20.68;70.25;101461.94;4949821;28;20559;-76
2022/09/12 09:38:43;;;;;;;22.23;15.45;;;;;;;20.85;69.49;101462.72;4952825;28;20040;-75
2022/09/12 09:41:38;;;;;;;20.63;15.75;;;;;;;20.99;69.46;101459.13;4913554;28;20062;-75
2022/09/12 09:44:06;;;;;;;25.70;14.80;;;;;;;21.13;69.53;101459.09;4952616;28;20039;-76
2022/09/12 09:46:35;;;;;;;21.42;15.77;;;;;;;21.28;69.05;101448.31;4952661;28;20074;-75
2022/09/12 09:49:05;;;;;;;20.70;13.88;;;;;;;21.40;68.35;101456.44;4952530;28;20446;-75
2022/09/12 09:51:37;;;;;;;20.75;14.77;;;;;;;21.54;68.66;101449.25;4951990;28;20044;-75
2022/09/12 09:54:20;;;;;;;19.27;14.00;;;;;;;21.66;67.57;101448.47;4949990;28;20055;-75
2022/09/12 09:56:47;;;;;;;19.13;14.00;;;;;;;21.75;67.47;101447.00;4952486;28;20504;-75
2022/09/12 09:59:14;;;;;;;19.35;13.05;;;;;;;21.82;66.53;101448.28;4951841;28;20052;-75
2022/09/12 10:01:54;;;;;;;19.10;13.57;;;;;;;21.89;65.57;101440.69;4952723;28;20511;-75
2022/09/12 10:04:24;;;;;;;23.15;14.57;;;;;;;21.95;64.06;101442.09;4951187;28;20040;-75
2022/09/12 10:07:01;;;;;;;20.05;13.32;;;;;;;21.98;64.61;101431.13;4952713;28;20782;-76
2022/09/12 10:09:33;;;;;;;18.08;13.68;;;;;;;22.06;64.84;101434.16;4951903;28;20513;-75
2022/09/12 10:12:27;;;;;;;16.95;14.00;;;;;;;22.13;64.19;101423.84;4951631;28;20051;-76
2022/09/12 10:14:59;;;;;;;;;;;;;;;22.23;65.02;101426.72;4952343;28;20040;-74
2022/09/12 10:17:30;;;;;;;24.38;13.70;;;;;;;22.33;64.79;101425.09;4941659;28;20395;-75
2022/09/12 10:20:01;;;;;;;20.98;12.55;;;;;;;22.48;64.30;101428.56;4937913;28;20479;-75
2022/09/12 10:22:49;;;;;;;18.90;13.07;;;;;;;22.59;62.97;101423.28;4934678;28;20052;-75
2022/09/12 10:25:19;;;;;;;18.90;13.10;;;;;;;22.68;63.50;101419.06;4953167;28;20044;-75
2022/09/12 10:27:59;;;;;;;17.48;12.30;;;;;;;22.74;62.35;101415.94;4952593;28;20416;-76
2022/09/12 10:30:27;;;;;;;17.52;12.52;;;;;;;22.83;62.37;101408.16;4952476;28;20123;-75
2022/09/12 10:33:14;;;;;;;16.60;11.80;;;;;;;22.93;60.74;101409.19;4951343;28;20563;-76
2022/09/12 10:35:48;;;;;;;23.80;11.68;;;;;;;22.98;61.98;101403.47;4945466;28;20055;-75
2022/09/12 10:38:29;;;;;;;13.77;9.98;;;;;;;23.02;60.89;101397.75;4955388;28;20051;-76
2022/09/12 10:41:02;;;;;;;16.13;11.80;;;;;;;23.08;61.02;101397.31;4955242;28;20044;-75
2022/09/12 10:43:32;;;;;;;16.33;13.18;;;;;;;23.20;61.43;101395.56;4936268;29;20045;-76
2022/09/12 10:46:27;;;;;;;13.43;9.55;;;;;;;23.35;60.55;101387.31;4936566;29;20123;-75
2022/09/12 10:49:36;;;;;;;18.83;10.52;;;;;;;23.42;59.92;101389.41;4951533;28;20040;-76
2022/09/12 10:52:36;;;;;;;28.55;11.30;;;;;;;23.51;59.79;101377.09;4894431;29;20537;-75
2022/09/12 10:55:13;;;;;;;15.60;9.82;;;;;;;23.58;59.61;101375.63;4901523;28;20110;-76
2022/09/12 10:58:20;;;;;;;11.77;8.77;;;;;;;23.66;59.40;101376.84;4955032;28;20111;-75
2022/09/12 11:01:02;;;;;;;16.17;9.00;;;;;;;23.83;58.75;101378.25;4897210;28;20508;-69
2022/09/12 11:04:11;;;;;;;13.40;7.07;;;;;;;23.91;57.40;101364.19;4953428;28;20075;-68
2022/09/12 11:07:40;;;;;;;12.95;8.82;;;;;;;24.08;57.59;101363.72;4954417;28;20050;-68
2022/09/12 11:10:26;;;;;;;16.25;8.30;;;;;;;24.24;57.44;101373.28;4931311;28;20060;-68
2022/09/12 11:13:19;;;;;;;13.70;8.93;;;;;;;24.29;56.01;101366.56;4954154;28;20123;-69
2022/09/12 11:16:29;;;;;;;9.63;5.82;;;;;;;24.36;55.36;101356.16;4953408;28;20040;-69
2022/09/12 11:19:08;;;;;;;9.68;5.30;;;;;;;24.42;54.46;101352.94;4941875;28;20055;-70
2022/09/12 11:22:01;;;;;;;8.68;5.22;;;;;;;24.54;53.32;101347.53;4953960;28;20909;-74
2022/09/12 11:24:42;;;;;;;8.40;5.13;;;;;;;24.57;53.17;101342.75;4951422;28;20100;-75
2022/09/12 11:28:01;;;;;;;8.65;4.70;;;;;;;24.66;53.60;101341.16;4949384;28;20040;-75
2022/09/12 11:30:50;;;;;;;7.93;4.38;;;;;;;24.78;53.82;101333.91;4954235;28;20095;-75
2022/09/12 11:33:28;;;;;;;10.93;6.30;;;;;;;24.88;52.09;101328.59;4952674;28;20047;-75
2022/09/12 11:35:56;;;;;;;11.80;6.07;;;;;;;24.90;51.22;101330.19;4962167;28;20861;-75
2022/09/12 11:39:15;;;;;;;7.50;4.75;;;;;;;24.90;52.06;101324.78;4953268;28;20071;-73
2022/09/12 11:41:59;;;;;;;9.15;4.40;;;;;;;24.96;50.20;101324.28;4937679;28;20055;-73
2022/09/12 11:44:40;;;;;;;4.25;3.30;;;;;;;25.06;50.80;101324.38;4946413;28;20111;-74
2022/09/12 11:47:12;;;;;;;5.30;3.42;;;;;;;25.20;51.60;101327.72;4952418;28;20043;-73
2022/09/12 11:49:49;;;;;;;11.32;4.00;;;;;;;25.31;49.32;101327.66;4953827;28;20060;-73
2022/09/12 11:52:23;;;;;;;7.70;4.20;;;;;;;25.37;49.17;101323.56;4952679;28;20542;-72
2022/09/12 11:55:07;;;;;;;5.93;4.25;;;;;;;25.41;48.70;101325.06;4954007;28;20857;-72
2022/09/12 11:57:53;;;;;;;5.22;4.70;;;;;;;25.39;48.56;101321.59;4951682;28;20123;-72
2022/09/12 12:00:41;;;;;;;7.10;4.40;;;;;;;25.37;49.73;101320.88;4952515;28;20048;-73